KHZD

Carroll County Airport

Huntingdon, Tennessee, USA
METAR KHZD 230930Z AUTO 21012G19KT 2SM BR BKN004 OVC035 17/16 A3021 RMK A01
Observed Flight Rules
Feb-23 @ 09:30 UTC (an hour ago) Instrument Flight Rules
Wind Visibility Clouds Conditions
210° at 12 knots
 Gusting to 19 knots
2 miles
  • Broken at 400' AGL
  • Overcast at 3,500' AGL
  • Mist
Temperatures Readings
Current 17°C / 63°F
Dewpoint 16°C / 61°F
Humidity 94%
Altimeter 30.21" Hg
Pressure 1023 hPa
Elevation 151
METAR KHZD 230930Z AUTO 21012G19KT 2SM BR BKN004 OVC035 17/16 A3021 RMK A01
Observed Flight Rules
Feb-23 @ 09:30 UTC
(an hour ago)
LIFR
Wind Visibility
210° at 12 knots
 Gusting to 19 knots
2 miles
Clouds
  • Broken at 400' AGL
  • Overcast at 3,500' AGL
Conditions
  • Mist
Temperature Dewpoint
17°C / 63°F 16°C / 61°F
Humidity Altimeter Pressure
94% 30.21" Hg 1023 hPa